createdAt,value
2019-03-15T09:00:59.829Z,44.23
2019-03-15T09:01:31.801Z,44.13
2019-03-15T09:02:03.787Z,43.85
2019-03-15T09:02:35.744Z,43.94
2019-03-15T09:03:07.764Z,44.23
2019-03-15T09:03:39.784Z,43.94
2019-03-15T09:04:11.795Z,44.04
2019-03-15T09:04:43.778Z,43.94
2019-03-15T09:05:15.782Z,44.13
2019-03-15T09:05:47.947Z,44.13
2019-03-15T09:06:19.918Z,44.04
2019-03-15T09:06:51.873Z,44.13
2019-03-15T09:07:23.873Z,44.13
2019-03-15T09:07:56.147Z,44.23
2019-03-15T09:08:28.139Z,43.94
2019-03-15T09:09:00.163Z,44.23
2019-03-15T09:09:32.287Z,44.23
2019-03-15T09:10:23.740Z,44.32
2019-03-15T09:10:56.046Z,44.52
2019-03-15T09:11:28.099Z,44.32
2019-03-15T09:12:00.081Z,44.23
2019-03-15T09:12:32.110Z,44.23
2019-03-15T09:13:04.091Z,43.94
2019-03-15T09:13:36.084Z,44.32
2019-03-15T09:14:08.082Z,44.42
2019-03-15T09:14:40.063Z,44.23
2019-03-15T09:15:12.038Z,44.32
2019-03-15T09:15:44.020Z,44.52
2019-03-15T09:16:16.016Z,44.42
2019-03-15T09:16:48.009Z,44.23
2019-03-15T09:17:20.651Z,44.42
2019-03-15T09:17:52.775Z,44.42
2019-03-15T09:18:24.904Z,44.32
2019-03-15T09:18:56.886Z,44.42
2019-03-15T09:19:28.952Z,44.42
2019-03-15T09:20:01.154Z,43.94
2019-03-15T09:20:33.128Z,44.42
2019-03-15T09:21:05.115Z,44.52
2019-03-15T09:21:37.132Z,44.52
2019-03-15T09:22:09.118Z,44.42
2019-03-15T09:22:41.113Z,44.42
2019-03-15T09:23:13.119Z,44.42
2019-03-15T09:23:45.157Z,44.04
2019-03-15T09:24:17.141Z,44.52
2019-03-15T09:24:49.136Z,44.32
2019-03-15T09:25:21.675Z,44.32
2019-03-15T09:25:53.672Z,44.42
2019-03-15T09:26:25.821Z,44.42
2019-03-15T09:26:57.787Z,44.32
2019-03-15T09:27:29.813Z,44.32
2019-03-15T09:28:01.815Z,44.32
2019-03-15T09:28:33.817Z,44.42
2019-03-15T09:29:05.793Z,44.42
2019-03-15T09:29:37.813Z,43.75
2019-03-15T09:30:24.311Z,44.32
2019-03-15T09:30:56.469Z,44.32
2019-03-15T09:31:28.473Z,44.42
2019-03-15T09:32:19.566Z,44.42
2019-03-15T09:32:51.554Z,43.94
2019-03-15T09:33:23.551Z,44.42
2019-03-15T09:33:55.531Z,44.42
2019-03-15T09:34:27.504Z,44.52
2019-03-15T09:34:59.479Z,44.42
2019-03-15T09:35:31.707Z,44.42
2019-03-15T09:36:03.684Z,44.42
2019-03-15T09:36:50.663Z,44.42
2019-03-15T09:37:22.685Z,44.52
2019-03-15T09:37:54.666Z,44.32
2019-03-15T09:38:26.650Z,44.52
2019-03-15T09:38:58.620Z,44.04
2019-03-15T09:39:30.594Z,44.32
2019-03-15T09:40:02.597Z,44.62
2019-03-15T09:40:34.586Z,44.52
2019-03-15T09:41:06.601Z,44.42
2019-03-15T09:41:40.677Z,44.42
2019-03-15T09:42:12.683Z,44.04
2019-03-15T09:42:44.711Z,44.32
2019-03-15T09:43:16.800Z,44.04
2019-03-15T09:43:48.811Z,44.23
2019-03-15T09:44:20.800Z,44.52
2019-03-15T09:44:52.787Z,44.62
2019-03-15T09:45:24.766Z,44.42
2019-03-15T09:45:56.767Z,44.62
2019-03-15T09:46:28.744Z,44.52
2019-03-15T09:47:03.033Z,44.32
2019-03-15T09:47:35.036Z,44.42
2019-03-15T09:48:07.041Z,44.42
2019-03-15T09:48:39.059Z,44.62
2019-03-15T09:49:14.654Z,44.52
2019-03-15T09:49:46.689Z,44.13
2019-03-15T09:50:50.026Z,44.62
2019-03-15T09:51:23.548Z,44.42
2019-03-15T09:51:55.646Z,44.32
2019-03-15T09:52:27.880Z,44.42
2019-03-15T09:53:01.685Z,44.32
2019-03-15T09:53:37.353Z,44.52
2019-03-15T09:54:09.347Z,44.42
2019-03-15T09:54:41.353Z,44.42
2019-03-15T09:55:13.365Z,44.42
2019-03-15T09:55:45.492Z,44.52
2019-03-15T09:56:17.451Z,44.23
2019-03-15T09:56:49.528Z,44.62
2019-03-15T09:57:22.449Z,44.42
2019-03-15T09:57:54.416Z,44.32
2019-03-15T09:58:26.384Z,44.71
2019-03-15T09:58:59.418Z,44.71
2019-03-15T09:59:32.025Z,44.42
2019-03-15T10:00:04.289Z,44.71
2019-03-15T10:00:36.722Z,43.94
2019-03-15T10:01:09.524Z,44.62
2019-03-15T10:01:42.954Z,44.52
2019-03-15T10:02:14.931Z,44.04
2019-03-15T10:03:00.369Z,44.52
2019-03-15T10:03:33.131Z,44.62
2019-03-15T10:04:05.115Z,44.62
2019-03-15T10:04:37.109Z,44.52
2019-03-15T10:05:12.614Z,44.62
2019-03-15T10:05:48.961Z,44.62
2019-03-15T10:06:22.417Z,44.52
2019-03-15T10:06:55.354Z,44.13
2019-03-15T10:07:39.508Z,44.23
2019-03-15T10:08:16.435Z,44.52
2019-03-15T10:08:48.496Z,44.42
2019-03-15T10:09:20.537Z,44.42
2019-03-15T10:09:52.538Z,44.62
2019-03-15T10:10:24.513Z,44.42
2019-03-15T10:10:56.484Z,44.64
2019-03-15T10:11:28.469Z,44.42
2019-03-15T10:12:00.472Z,44.62
2019-03-15T10:12:32.712Z,44.62
2019-03-15T10:13:06.639Z,44.62
2019-03-15T10:13:38.659Z,44.62
2019-03-15T10:14:10.689Z,44.62
2019-03-15T10:14:43.354Z,44.62
2019-03-15T10:15:15.337Z,44.52
2019-03-15T10:15:47.606Z,44.62
2019-03-15T10:16:20.114Z,44.62
2019-03-15T10:16:52.075Z,44.62
2019-03-15T10:17:24.116Z,44.62
2019-03-15T10:17:56.242Z,44.71
2019-03-15T10:18:28.246Z,44.42
2019-03-15T10:19:00.240Z,44.52
2019-03-15T10:19:32.238Z,44.71
2019-03-15T10:20:04.250Z,44.64
2019-03-15T10:20:36.259Z,44.52
2019-03-15T10:21:09.830Z,44.62
2019-03-15T10:21:41.827Z,44.52
2019-03-15T10:22:14.105Z,44.71
2019-03-15T10:22:46.253Z,44.45
2019-03-15T10:23:37.726Z,44.73
2019-03-15T10:24:09.729Z,44.42
2019-03-15T10:24:41.709Z,44.06
2019-03-15T10:25:13.762Z,44.04
2019-03-15T10:25:51.195Z,44.52
2019-03-15T10:26:23.378Z,44.06
2019-03-15T10:26:55.366Z,44.54
2019-03-15T10:27:27.362Z,44.64
2019-03-15T10:27:59.358Z,44.64
2019-03-15T10:28:31.336Z,44.06
2019-03-15T10:29:17.061Z,44.54
2019-03-15T10:29:51.459Z,44.54
2019-03-15T10:30:23.516Z,44.45
2019-03-15T10:30:55.500Z,44.15
2019-03-15T10:31:27.608Z,44.64
2019-03-15T10:31:59.610Z,44.64
2019-03-15T10:32:31.596Z,44.45
2019-03-15T10:33:03.578Z,44.64
2019-03-15T10:33:35.580Z,44.15
2019-03-15T10:34:22.259Z,44.35
2019-03-15T10:34:54.235Z,44.64
2019-03-15T10:35:26.220Z,44.45
2019-03-15T10:35:58.193Z,44.35
2019-03-15T10:36:30.177Z,44.35
2019-03-15T10:37:06.812Z,44.54
2019-03-15T10:37:38.785Z,44.35
2019-03-15T10:38:10.872Z,44.35
2019-03-15T10:38:42.875Z,44.45
2019-03-15T10:39:14.867Z,44.45
2019-03-15T10:39:47.547Z,44.25
2019-03-15T10:40:19.564Z,44.45
2019-03-15T10:40:51.549Z,44.54
2019-03-15T10:41:23.518Z,44.15
2019-03-15T10:41:55.503Z,44.06
2019-03-15T10:42:27.638Z,44.54
2019-03-15T10:42:59.626Z,44.73
2019-03-15T10:43:31.585Z,44.64
2019-03-15T10:44:04.818Z,44.54
2019-03-15T10:44:36.836Z,44.54
2019-03-15T10:45:08.847Z,44.73
2019-03-15T10:45:40.824Z,44.64
2019-03-15T10:46:12.831Z,44.54
2019-03-15T10:46:44.809Z,44.73
2019-03-15T10:47:16.792Z,44.25
2019-03-15T10:47:48.778Z,43.96
2019-03-15T10:48:25.973Z,44.35
2019-03-15T10:48:57.970Z,44.64
2019-03-15T10:49:31.362Z,44.25
2019-03-15T10:50:03.332Z,44.64
2019-03-15T10:50:35.298Z,44.35
2019-03-15T10:51:07.279Z,44.35
2019-03-15T10:51:39.252Z,44.06
2019-03-15T10:52:11.220Z,44.45
2019-03-15T10:52:43.204Z,44.45
2019-03-15T10:53:15.185Z,44.54
2019-03-15T10:54:10.206Z,44.64
2019-03-15T10:54:42.218Z,44.35
2019-03-15T10:55:42.764Z,44.54
2019-03-15T10:56:14.760Z,44.64
2019-03-15T10:56:46.738Z,44.35
2019-03-15T10:57:18.701Z,44.37
2019-03-15T10:57:50.677Z,44.37
2019-03-15T10:58:22.664Z,44.56
2019-03-15T10:58:54.639Z,44.46
2019-03-15T10:59:26.641Z,44.46
2019-03-15T10:59:58.634Z,44.37
2019-03-15T11:00:30.621Z,44.46
2019-03-15T11:01:02.604Z,44.18
2019-03-15T11:01:34.583Z,44.37
2019-03-15T11:02:06.554Z,44.56
2019-03-15T11:02:38.555Z,44.45
2019-03-15T11:03:13.562Z,44.18
2019-03-15T11:03:45.537Z,44.37
2019-03-15T11:04:17.521Z,44.66
2019-03-15T11:04:49.609Z,44.37
2019-03-15T11:05:21.588Z,44.66
2019-03-15T11:05:53.613Z,44.27
2019-03-15T11:06:25.623Z,44.56
2019-03-15T11:06:57.600Z,44.56
2019-03-15T11:07:29.629Z,44.76
2019-03-15T11:08:01.609Z,44.76
2019-03-15T11:08:33.691Z,44.08
2019-03-15T11:09:05.668Z,44.76
2019-03-15T11:09:37.749Z,44.46
2019-03-15T11:10:09.748Z,44.66
2019-03-15T11:10:41.816Z,44.18
2019-03-15T11:11:13.831Z,44.66
2019-03-15T11:11:45.808Z,44.66
2019-03-15T11:12:17.790Z,44.66
2019-03-15T11:12:49.776Z,44.46
2019-03-15T11:13:21.779Z,44.56
2019-03-15T11:13:56.205Z,44.18
2019-03-15T11:14:28.184Z,44.66
2019-03-15T11:15:00.261Z,44.76
2019-03-15T11:15:32.315Z,44.56
2019-03-15T11:16:04.321Z,44.76
2019-03-15T11:16:36.295Z,44.66
2019-03-15T11:17:08.295Z,44.66
2019-03-15T11:17:40.282Z,44.56
2019-03-15T11:18:12.260Z,44.37
2019-03-15T11:18:44.250Z,44.66
2019-03-15T11:19:16.301Z,44.56
2019-03-15T11:19:48.302Z,43.98
2019-03-15T11:20:20.336Z,44.46
2019-03-15T11:20:52.362Z,44.46
2019-03-15T11:21:24.333Z,44.56
2019-03-15T11:21:56.329Z,44.56
2019-03-15T11:22:28.322Z,44.08
2019-03-15T11:23:00.309Z,44.76
2019-03-15T11:23:32.326Z,44.56
2019-03-15T11:24:04.302Z,44.66
2019-03-15T11:24:36.307Z,44.18
2019-03-15T11:25:08.295Z,44.66
2019-03-15T11:25:40.303Z,44.08
2019-03-15T11:26:14.411Z,44.56
2019-03-15T11:26:46.409Z,44.56
2019-03-15T11:27:18.412Z,44.56
2019-03-15T11:27:50.377Z,44.76
2019-03-15T11:28:22.378Z,44.66
2019-03-15T11:28:54.375Z,44.46
2019-03-15T11:29:26.372Z,44.37
2019-03-15T11:29:58.346Z,44.56
2019-03-15T11:30:30.340Z,44.76
2019-03-15T11:31:02.315Z,44.66
2019-03-15T11:31:34.349Z,44.76
2019-03-15T11:32:06.360Z,44.76
2019-03-15T11:32:38.355Z,44.66
2019-03-15T11:33:10.426Z,44.76
2019-03-15T11:33:43.296Z,44.66
2019-03-15T11:34:21.678Z,44.66
2019-03-15T11:34:53.644Z,44.66
2019-03-15T11:35:25.663Z,44.66
2019-03-15T11:35:57.675Z,44.66
2019-03-15T11:36:29.678Z,44.66
2019-03-15T11:37:03.964Z,44.56
2019-03-15T11:37:35.956Z,44.66
2019-03-15T11:38:07.973Z,44.56
2019-03-15T11:38:39.960Z,44.66
2019-03-15T11:39:11.930Z,44.66
2019-03-15T11:39:43.892Z,44.66
2019-03-15T11:40:19.693Z,44.37
2019-03-15T11:40:51.766Z,44.46
2019-03-15T11:41:23.768Z,44.66
2019-03-15T11:41:55.751Z,44.76
2019-03-15T11:42:27.723Z,44.56
2019-03-15T11:42:59.702Z,44.76
2019-03-15T11:43:31.679Z,44.46
2019-03-15T11:44:03.647Z,44.56
2019-03-15T11:44:35.641Z,44.66
2019-03-15T11:45:07.613Z,44.56
2019-03-15T11:45:39.618Z,44.37
2019-03-15T11:46:11.617Z,44.66
2019-03-15T11:46:43.634Z,44.66
2019-03-15T11:47:15.701Z,44.56
2019-03-15T11:48:04.520Z,44.66
2019-03-15T11:48:40.334Z,44.27
2019-03-15T11:49:12.355Z,44.76
2019-03-15T11:49:44.389Z,44.66
2019-03-15T11:50:16.356Z,44.56
2019-03-15T11:50:48.459Z,44.66
2019-03-15T11:51:20.446Z,44.56
2019-03-15T11:51:52.433Z,44.56
2019-03-15T11:52:24.453Z,44.68
2019-03-15T11:52:56.445Z,44.59
2019-03-15T11:53:28.449Z,44.59
2019-03-15T11:54:00.444Z,44.78
2019-03-15T11:54:32.430Z,44.66
2019-03-15T11:55:04.417Z,44.68
2019-03-15T11:55:36.385Z,44.68
2019-03-15T11:56:08.357Z,44.78
2019-03-15T11:56:40.350Z,44.68
2019-03-15T11:57:12.890Z,44.29
2019-03-15T11:57:44.873Z,44.68
2019-03-15T11:58:16.857Z,44.68
2019-03-15T11:58:48.851Z,44.78
2019-03-15T11:59:20.840Z,44.78
2019-03-15T11:59:52.826Z,44.78
2019-03-15T12:00:24.799Z,44.68
2019-03-15T12:00:56.797Z,44.29
2019-03-15T12:01:28.784Z,44.68
2019-03-15T12:02:04.859Z,44.78
2019-03-15T12:02:36.849Z,44.68
2019-03-15T12:03:08.851Z,44.68
2019-03-15T12:03:53.607Z,44.78
2019-03-15T12:04:25.630Z,44.68
2019-03-15T12:04:57.595Z,44.39
2019-03-15T12:05:29.584Z,44.68
2019-03-15T12:06:01.660Z,44.68
2019-03-15T12:06:33.655Z,44.78
2019-03-15T12:07:05.633Z,44.68
2019-03-15T12:07:37.634Z,44.39
2019-03-15T12:08:09.634Z,44.78
2019-03-15T12:08:41.631Z,44.39
2019-03-15T12:09:13.626Z,44.78
2019-03-15T12:09:45.620Z,44.78
2019-03-15T12:10:17.617Z,44.68
2019-03-15T12:10:49.669Z,44.59
2019-03-15T12:11:21.641Z,44.49
2019-03-15T12:11:53.625Z,44.6
2019-03-15T12:12:25.614Z,44.7
2019-03-15T12:12:57.591Z,44.29
2019-03-15T12:13:29.585Z,44.8
2019-03-15T12:14:01.583Z,44.7
2019-03-15T12:14:41.556Z,44.8
2019-03-15T12:15:13.571Z,44.6
2019-03-15T12:15:45.528Z,44.8
2019-03-15T12:16:17.511Z,44.22
2019-03-15T12:16:49.534Z,44.7
2019-03-15T12:17:21.552Z,44.7
2019-03-15T12:17:53.531Z,44.7
2019-03-15T12:18:25.526Z,44.7
2019-03-15T12:18:57.493Z,44.42
2019-03-15T12:19:29.470Z,44.32
2019-03-15T12:20:01.457Z,44.7
2019-03-15T12:20:33.440Z,44.7
2019-03-15T12:21:05.437Z,44.6
2019-03-15T12:21:37.430Z,44.6
2019-03-15T12:22:09.405Z,44.6
2019-03-15T12:22:41.490Z,44.22
2019-03-15T12:23:13.526Z,44.6
2019-03-15T12:23:45.525Z,44.8
2019-03-15T12:24:17.576Z,44.6
2019-03-15T12:24:49.560Z,44.6
2019-03-15T12:25:21.547Z,44.6
2019-03-15T12:25:53.542Z,44.7
2019-03-15T12:26:25.534Z,44.8
2019-03-15T12:27:11.682Z,44.82
2019-03-15T12:27:43.673Z,44.63
2019-03-15T12:28:15.654Z,44.63
2019-03-15T12:28:47.673Z,44.53
2019-03-15T12:29:19.661Z,44.6
2019-03-15T12:29:51.634Z,44.43
2019-03-15T12:30:23.634Z,44.53
2019-03-15T12:30:55.668Z,44.43
2019-03-15T12:31:27.648Z,44.63
2019-03-15T12:31:59.659Z,44.63
2019-03-15T12:32:31.658Z,44.63
2019-03-15T12:33:03.704Z,44.63
2019-03-15T12:33:35.710Z,44.53
2019-03-15T12:34:07.686Z,44.63
2019-03-15T12:34:39.683Z,44.63
2019-03-15T12:35:11.673Z,44.53
2019-03-15T12:35:43.714Z,44.7
2019-03-15T12:36:15.734Z,44.53
2019-03-15T12:36:47.710Z,44.9
2019-03-15T12:37:20.303Z,44.8
2019-03-15T12:37:52.285Z,45
2019-03-15T12:38:24.265Z,45.18
2019-03-15T12:38:58.989Z,44.9
2019-03-15T12:39:31.937Z,44.8
2019-03-15T12:40:03.934Z,45.09
2019-03-15T12:40:35.915Z,45.18
2019-03-15T12:41:07.923Z,45.28
2019-03-15T12:41:39.903Z,44.7
2019-03-15T12:42:11.891Z,45.28
2019-03-15T12:42:43.870Z,45.28
2019-03-15T12:43:15.872Z,45.28
2019-03-15T12:43:47.873Z,44.7
2019-03-15T12:44:19.867Z,44.6
2019-03-15T12:44:51.848Z,45.28
2019-03-15T12:45:23.851Z,45.18
2019-03-15T12:45:55.849Z,45.28
2019-03-15T12:46:27.812Z,45.28
2019-03-15T12:46:59.793Z,45.28
2019-03-15T12:47:31.776Z,45.28
2019-03-15T12:48:03.753Z,45
2019-03-15T12:48:35.734Z,45.57
2019-03-15T12:49:07.703Z,45.28
2019-03-15T12:49:39.691Z,44.9
2019-03-15T12:50:11.664Z,45.18
2019-03-15T12:50:43.648Z,45.28
2019-03-15T12:51:15.638Z,44.8
2019-03-15T12:51:47.609Z,45.18
2019-03-15T12:52:21.109Z,45.67
2019-03-15T12:52:53.088Z,44.97
2019-03-15T12:53:25.069Z,45.07
2019-03-15T12:53:57.078Z,45.07
2019-03-15T12:54:29.140Z,45.45
2019-03-15T12:55:01.127Z,45.45
2019-03-15T12:55:33.118Z,45.55
2019-03-15T12:56:05.099Z,45.45
2019-03-15T12:56:37.085Z,45.55
2019-03-15T12:57:09.059Z,45.45
2019-03-15T12:57:41.061Z,45.45
2019-03-15T12:58:13.051Z,45.45
2019-03-15T12:58:45.012Z,45.45
2019-03-15T12:59:16.963Z,45.36
2019-03-15T12:59:48.937Z,45.65
2019-03-15T13:00:20.911Z,45.26
2019-03-15T13:00:52.913Z,45.26
2019-03-15T13:01:24.890Z,45.45
2019-03-15T13:01:56.875Z,45.55
2019-03-15T13:02:28.843Z,45.45
2019-03-15T13:03:00.849Z,45.45
2019-03-15T13:03:32.948Z,45.45
2019-03-15T13:04:04.937Z,45.45
2019-03-15T13:04:36.936Z,45.45
2019-03-15T13:05:08.943Z,45.65
2019-03-15T13:05:40.926Z,45.65
2019-03-15T13:06:12.906Z,45.55
2019-03-15T13:06:44.905Z,45.45
2019-03-15T13:07:16.908Z,45.65
2019-03-15T13:07:48.998Z,45.65
2019-03-15T13:08:20.994Z,45.45
2019-03-15T13:08:52.993Z,45.45
2019-03-15T13:09:25.002Z,45.17
2019-03-15T13:09:56.976Z,45.45
2019-03-15T13:10:28.972Z,45.36
2019-03-15T13:11:00.976Z,45.45
2019-03-15T13:11:32.960Z,45.36
2019-03-15T13:12:04.914Z,45.26
2019-03-15T13:12:36.916Z,45.48
2019-03-15T13:13:08.898Z,45.36
2019-03-15T13:13:40.918Z,45.36
2019-03-15T13:14:12.895Z,45.48
2019-03-15T13:14:44.895Z,45.48
2019-03-15T13:15:16.887Z,45.48
2019-03-15T13:15:48.905Z,45.38
2019-03-15T13:16:20.897Z,45.67
2019-03-15T13:16:52.885Z,45.48
2019-03-15T13:17:24.878Z,45.45
2019-03-15T13:17:56.858Z,45.48
2019-03-15T13:18:28.830Z,45.07
2019-03-15T13:19:00.912Z,45.67
2019-03-15T13:19:32.912Z,45.55
2019-03-15T13:20:04.901Z,45.45
2019-03-15T13:20:36.988Z,45.45
2019-03-15T13:21:08.957Z,45.75
2019-03-15T13:21:40.949Z,45.75
2019-03-15T13:22:12.952Z,45.75
2019-03-15T13:22:44.924Z,45.84
2019-03-15T13:23:16.915Z,45.45
2019-03-15T13:23:48.886Z,45.75
2019-03-15T13:24:20.877Z,45.36
2019-03-15T13:24:52.839Z,45.75
2019-03-15T13:25:24.872Z,45.65
2019-03-15T13:25:56.857Z,45.84
2019-03-15T13:26:29.594Z,45.28
2019-03-15T13:27:08.165Z,45.28
2019-03-15T13:27:40.158Z,46.23
2019-03-15T13:28:12.148Z,45.65
2019-03-15T13:28:44.147Z,46.13
2019-03-15T13:29:16.099Z,45.45
2019-03-15T13:29:48.077Z,45.65
2019-03-15T13:30:20.179Z,45.55
2019-03-15T13:30:52.145Z,46.23
2019-03-15T13:31:24.154Z,45.65
2019-03-15T13:31:56.126Z,45.75
2019-03-15T13:32:28.118Z,45.75
2019-03-15T13:33:00.096Z,45.84
2019-03-15T13:33:32.100Z,45.65
2019-03-15T13:34:04.112Z,45.75
2019-03-15T13:34:36.077Z,45.45
2019-03-15T13:35:08.676Z,45.94
2019-03-15T13:35:40.664Z,45.94
2019-03-15T13:36:12.654Z,45.84
2019-03-15T13:36:44.718Z,45.84
2019-03-15T13:37:16.731Z,45.84
2019-03-15T13:37:48.711Z,45.75
2019-03-15T13:38:20.732Z,45.94
2019-03-15T13:38:52.712Z,45.75
2019-03-15T13:39:24.715Z,45.65
2019-03-15T13:39:56.708Z,46.13
2019-03-15T13:40:28.692Z,45.65
2019-03-15T13:41:00.700Z,45.65
2019-03-15T13:41:32.697Z,45.75
2019-03-15T13:42:04.688Z,45.75
2019-03-15T13:42:36.666Z,45.65
2019-03-15T13:43:08.627Z,45.65
2019-03-15T13:43:40.584Z,45.75
2019-03-15T13:44:12.580Z,45.75
2019-03-15T13:44:44.582Z,45.75
2019-03-15T13:45:16.733Z,45.94
2019-03-15T13:45:48.734Z,45.84
2019-03-15T13:46:20.711Z,45.84
2019-03-15T13:46:52.758Z,45.84
2019-03-15T13:47:24.752Z,45.94
2019-03-15T13:47:56.733Z,45.94
2019-03-15T13:48:28.708Z,45.94
2019-03-15T13:49:00.690Z,45.94
2019-03-15T13:49:32.802Z,46.03
2019-03-15T13:50:04.805Z,45.75
2019-03-15T13:50:36.797Z,45.84
2019-03-15T13:51:08.768Z,45.94
2019-03-15T13:51:40.767Z,45.65
2019-03-15T13:52:12.772Z,45.75
2019-03-15T13:52:44.757Z,45.94
2019-03-15T13:53:16.770Z,45.84
2019-03-15T13:53:48.757Z,45.75
2019-03-15T13:54:20.726Z,45.94
2019-03-15T13:54:52.709Z,46.51
2019-03-15T13:55:24.693Z,46.51
2019-03-15T13:55:56.674Z,46.42
2019-03-15T13:56:28.669Z,46.23
2019-03-15T13:57:00.643Z,46.23
2019-03-15T13:57:32.614Z,46.33
2019-03-15T13:58:04.599Z,46.13
2019-03-15T13:58:36.651Z,46.03
2019-03-15T13:59:08.647Z,46.03
2019-03-15T13:59:40.605Z,46.33
2019-03-15T14:00:12.700Z,46.23
2019-03-15T14:00:44.712Z,46.23
2019-03-15T14:01:16.705Z,46.42
2019-03-15T14:01:48.679Z,46.23
2019-03-15T14:02:20.661Z,46.23
2019-03-15T14:02:52.695Z,46.33
2019-03-15T14:03:24.689Z,46.3
2019-03-15T14:03:56.667Z,46.33
2019-03-15T14:04:28.655Z,46.3
2019-03-15T14:05:00.791Z,46.33
2019-03-15T14:05:32.879Z,46.3
2019-03-15T14:06:04.835Z,46.49
2019-03-15T14:06:36.806Z,46.51
2019-03-15T14:07:08.779Z,46.11
2019-03-15T14:07:40.793Z,46.4
2019-03-15T14:08:12.813Z,46.3
2019-03-15T14:08:44.806Z,46.11
2019-03-15T14:09:16.777Z,46.49
2019-03-15T14:09:48.768Z,46.4
2019-03-15T14:10:20.763Z,46.78
2019-03-15T14:10:52.748Z,46.3
2019-03-15T14:11:24.720Z,46.4
2019-03-15T14:11:56.714Z,46.69
2019-03-15T14:12:28.698Z,46.2
2019-03-15T14:13:00.686Z,46.2
2019-03-15T14:13:32.686Z,46.4
2019-03-15T14:14:04.656Z,46.49
2019-03-15T14:14:36.645Z,46.4
2019-03-15T14:15:08.640Z,46.59
2019-03-15T14:15:40.615Z,46.01
2019-03-15T14:16:12.593Z,46.2
2019-03-15T14:16:44.606Z,46.2
2019-03-15T14:17:16.601Z,45.92
2019-03-15T14:17:48.606Z,46.01
2019-03-15T14:18:22.044Z,46.11
2019-03-15T14:18:54.031Z,46.11
2019-03-15T14:19:26.008Z,46.4
2019-03-15T14:19:58.121Z,46.01
2019-03-15T14:20:30.122Z,46.3
2019-03-15T14:21:02.100Z,46.11
2019-03-15T14:21:34.084Z,46.49
2019-03-15T14:22:06.824Z,46.49
2019-03-15T14:22:38.813Z,46.4
2019-03-15T14:23:10.791Z,46.01
2019-03-15T14:23:42.801Z,46.2
2019-03-15T14:24:14.777Z,46.4
2019-03-15T14:24:46.765Z,46.4
2019-03-15T14:25:18.774Z,46.4
2019-03-15T14:25:50.857Z,46.3
2019-03-15T14:26:22.860Z,46.2
2019-03-15T14:26:55.062Z,46.2
2019-03-15T14:27:38.092Z,46.3
2019-03-15T14:28:10.105Z,46.4
2019-03-15T14:28:42.093Z,46.4
2019-03-15T14:29:14.075Z,46.28
2019-03-15T14:29:46.063Z,46.28
2019-03-15T14:30:18.046Z,46.37
2019-03-15T14:30:50.025Z,46.28
2019-03-15T14:31:22.304Z,46.28
2019-03-15T14:31:54.291Z,46.56
2019-03-15T14:32:26.271Z,46.47
2019-03-15T14:32:58.302Z,46.56
2019-03-15T14:33:30.925Z,46.28
2019-03-15T14:34:03.019Z,46.56
2019-03-15T14:34:35.338Z,46.37
2019-03-15T14:35:07.495Z,46.47
2019-03-15T14:35:39.924Z,46.37
2019-03-15T14:36:12.188Z,46.28
2019-03-15T14:36:44.345Z,46.37
2019-03-15T14:37:16.415Z,46.66
2019-03-15T14:37:48.678Z,46.18
2019-03-15T14:38:21.338Z,46.86
2019-03-15T14:38:54.185Z,46.76
2019-03-15T14:39:26.307Z,46.76
2019-03-15T14:39:58.558Z,46.86
2019-03-15T14:40:31.008Z,46.66
2019-03-15T14:41:03.198Z,46.47
2019-03-15T14:41:39.152Z,46.56
2019-03-15T14:42:11.516Z,46.28
2019-03-15T14:42:44.060Z,46.56
2019-03-15T14:43:16.325Z,46.66
2019-03-15T14:43:48.703Z,46.86
2019-03-15T14:44:21.171Z,46.28
2019-03-15T14:44:53.465Z,46.28
2019-03-15T14:45:25.748Z,46.28
2019-03-15T14:45:58.377Z,46.18
2019-03-15T14:46:30.466Z,46.56
2019-03-15T14:47:02.503Z,46.66
2019-03-15T14:47:34.477Z,46.47
2019-03-15T14:48:06.468Z,46.76
2019-03-15T14:48:38.455Z,46.47
2019-03-15T14:49:10.426Z,46.47
2019-03-15T14:49:42.403Z,46.56
2019-03-15T14:50:14.397Z,46.86
2019-03-15T14:50:46.404Z,46.66
2019-03-15T14:51:18.483Z,46.56
2019-03-15T14:51:50.474Z,46.56
2019-03-15T14:52:22.472Z,46.76
2019-03-15T14:52:54.474Z,46.56
2019-03-15T14:53:26.467Z,46.66
2019-03-15T14:53:58.446Z,46.95
2019-03-15T14:54:30.426Z,46.56
2019-03-15T14:55:02.418Z,46.76
2019-03-15T14:55:34.398Z,46.76
2019-03-15T14:56:06.400Z,46.86
2019-03-15T14:56:38.398Z,46.66
2019-03-15T14:57:10.408Z,46.66
2019-03-15T14:57:53.545Z,46.76
2019-03-15T14:58:25.666Z,46.95
2019-03-15T14:58:57.679Z,46.95
2019-03-15T14:59:29.677Z,46.76
2019-03-15T15:00:01.677Z,46.56
2019-03-15T15:00:33.690Z,46.56
2019-03-15T15:01:05.682Z,46.28
2019-03-15T15:01:37.675Z,46.56
2019-03-15T15:02:09.687Z,46.86
2019-03-15T15:02:41.665Z,46.47
2019-03-15T15:03:13.665Z,46.86
2019-03-15T15:03:45.649Z,46.56
2019-03-15T15:04:17.626Z,46.47
2019-03-15T15:04:49.603Z,46.47
2019-03-15T15:05:21.557Z,46.37
2019-03-15T15:05:53.554Z,46.3
2019-03-15T15:06:25.551Z,46.4
2019-03-15T15:06:57.533Z,46.56
2019-03-15T15:07:29.521Z,46.4
2019-03-15T15:08:01.518Z,46.3
2019-03-15T15:08:33.487Z,46.28
2019-03-15T15:09:05.556Z,46.59
2019-03-15T15:09:37.535Z,46.37
2019-03-15T15:10:09.522Z,46.69
2019-03-15T15:10:41.523Z,46.28
2019-03-15T15:11:13.517Z,46.28
2019-03-15T15:11:45.519Z,46.37
2019-03-15T15:12:17.506Z,46.56
2019-03-15T15:12:49.514Z,46.47
2019-03-15T15:13:21.514Z,46.56
2019-03-15T15:13:53.507Z,46.47
2019-03-15T15:14:25.521Z,46.56
2019-03-15T15:14:58.215Z,46.49
2019-03-15T15:15:30.206Z,46.56
2019-03-15T15:16:02.177Z,46.56
2019-03-15T15:16:34.260Z,46.47
2019-03-15T15:17:06.275Z,46.56
2019-03-15T15:17:38.601Z,46.76
2019-03-15T15:18:10.659Z,46.76
2019-03-15T15:18:42.683Z,46.69
2019-03-15T15:19:14.670Z,46.47
2019-03-15T15:19:46.690Z,46.76
2019-03-15T15:20:18.685Z,46.86
2019-03-15T15:20:50.675Z,46.78
2019-03-15T15:21:22.639Z,46.47
2019-03-15T15:21:54.625Z,46.56
2019-03-15T15:22:26.601Z,46.47
2019-03-15T15:22:58.593Z,46.56
2019-03-15T15:23:30.567Z,46.28
2019-03-15T15:24:05.841Z,46.56
2019-03-15T15:24:37.837Z,46.37
2019-03-15T15:25:09.907Z,46.56
2019-03-15T15:25:41.893Z,46.28
2019-03-15T15:26:13.891Z,46.37
2019-03-15T15:26:45.868Z,46.76
2019-03-15T15:27:17.883Z,46.56
2019-03-15T15:27:49.863Z,46.95
2019-03-15T15:28:36.378Z,46.56
2019-03-15T15:29:08.472Z,46.18
2019-03-15T15:29:40.464Z,46.18
2019-03-15T15:30:12.458Z,46.18
2019-03-15T15:30:44.459Z,46.56
2019-03-15T15:31:16.449Z,46.56
2019-03-15T15:31:48.436Z,46.56
2019-03-15T15:32:20.404Z,46.56
2019-03-15T15:32:52.388Z,46.37
2019-03-15T15:33:24.355Z,46.56
2019-03-15T15:33:59.471Z,46.66
2019-03-15T15:34:31.465Z,46.56
2019-03-15T15:35:03.446Z,46.95
2019-03-15T15:35:35.424Z,46.76
2019-03-15T15:36:07.423Z,46.95
2019-03-15T15:36:39.401Z,46.28
2019-03-15T15:37:11.384Z,46.86
2019-03-15T15:37:43.424Z,46.66
2019-03-15T15:38:15.404Z,46.95
2019-03-15T15:38:47.395Z,46.56
2019-03-15T15:39:19.391Z,46.86
2019-03-15T15:39:51.380Z,46.66
2019-03-15T15:40:23.385Z,46.37
2019-03-15T15:40:55.345Z,46.28
2019-03-15T15:41:27.316Z,46.37
2019-03-15T15:41:59.306Z,46.66
2019-03-15T15:42:31.311Z,46.66
2019-03-15T15:43:03.297Z,46.66
2019-03-15T15:43:35.261Z,46.66
2019-03-15T15:44:07.239Z,46.86
2019-03-15T15:44:39.221Z,46.47
2019-03-15T15:45:11.250Z,46.76
2019-03-15T15:45:43.216Z,46.37
2019-03-15T15:46:15.217Z,46.76
2019-03-15T15:46:47.223Z,46.76
2019-03-15T15:47:19.223Z,46.76
2019-03-15T15:47:51.167Z,46.47
2019-03-15T15:48:23.147Z,46.56
2019-03-15T15:48:55.230Z,46.37
2019-03-15T15:49:27.220Z,46.56
2019-03-15T15:49:59.229Z,46.47
2019-03-15T15:50:31.209Z,46.47
2019-03-15T15:51:03.168Z,46.47
2019-03-15T15:51:35.238Z,46.47
2019-03-15T15:52:07.230Z,46.18
2019-03-15T15:52:39.206Z,46.28
2019-03-15T15:53:11.757Z,46.28
2019-03-15T15:53:43.762Z,46.28
2019-03-15T15:54:15.762Z,46.37
2019-03-15T15:54:47.736Z,46.28
2019-03-15T15:55:19.730Z,46.37
2019-03-15T15:55:51.719Z,46.28
2019-03-15T15:56:23.716Z,46.37
2019-03-15T15:56:55.694Z,46.37
2019-03-15T15:57:27.704Z,46.47
2019-03-15T15:57:59.709Z,46.28
2019-03-15T15:58:31.725Z,46.18
2019-03-15T15:59:03.824Z,46.18
2019-03-15T15:59:35.816Z,46.28
2019-03-15T16:00:07.792Z,46.18
2019-03-15T16:00:39.774Z,46.08
2019-03-15T16:01:11.800Z,46.18